Latest Weather Observations for Fowlers Gap

IDN60801

Issued at 3:03 pm EDT Saturday 29 February 2020 (issued every 10 minutes, with the page automatically refreshed every 10 minutes)

About weather observations | Map of weather stations | Latest weather observations for NSW | Other Formats
Station Details ID: 046128 Name: FOWLERS GAP AWS Lat: -31.09 Lon: 141.70 Height: 181.0 m
Data from the previous 72 hours. | See also: Recent months at Fowlers Gap
Date/Time
EDT
Temp
°C
App
Temp
°C
Dew
Point
°C
Rel
Hum
%
Delta-T
°C
Wind Press
QNH
hPa
Press
MSL
hPa
Rain since
9am
mm
Dir  Spd
km/h
Gust
km/h
Spd
kts
Gust
kts
29/03:00pm 31.2 28.0 4.9 19 13.9 ENE 11 19 6 10 1012.8 1011.7 0.0
29/02:30pm 31.1 28.0 5.5 20 13.6 NW 11 17 6 9 1013.3 1012.2 0.0
29/02:00pm 30.2 26.6 4.8 20 13.3 NE 13 19 7 10 1013.7 1012.6 0.0
29/01:30pm 29.4 27.2 6.1 23 12.4 S 7 15 4 8 1014.2 1013.1 0.0
29/01:00pm 28.6 25.9 5.5 23 12.1 NNE 9 15 5 8 1014.6 1013.5 0.0
29/12:30pm 28.2 25.4 6.9 26 11.4 ESE 11 20 6 11 1015.1 1013.9 0.0
29/12:00pm 27.0 24.1 6.4 27 10.9 E 11 20 6 11 1015.5 1014.4 0.0
29/11:30am 26.5 23.0 7.0 29 10.4 ESE 15 24 8 13 1015.7 1014.6 0.0
29/11:00am 26.3 23.2 7.4 30 10.1 ESE 13 19 7 10 1016.0 1014.9 0.0
29/10:30am 24.8 21.0 7.4 33 9.2 E 17 22 9 12 1016.0 1014.9 0.0
29/10:00am 23.9 19.7 7.5 35 8.7 ESE 19 24 10 13 1015.8 1014.7 0.0
29/09:30am 23.0 18.8 7.5 37 8.2 SE 19 26 10 14 1016.0 1014.9 0.0
29/09:00am 21.4 17.5 7.3 40 7.3 SE 17 20 9 11 1016.0 1014.9 0.0
29/08:30am 19.8 17.4 7.2 44 6.5 SE 9 11 5 6 1016.2 1015.1 0.0
29/08:00am 17.8 15.8 7.0 49 5.4 SSE 7 11 4 6 1016.1 1015.0 0.0
29/07:30am 16.9 14.4 6.7 51 5.1 S 9 13 5 7 1015.7 1014.6 0.0
29/07:00am 16.4 14.4 6.2 51 5.0 S 6 7 3 4 1015.3 1014.2 0.0
29/06:30am 17.3 14.5 6.8 50 5.3 S 11 13 6 7 1014.9 1013.8 0.0
29/06:00am 17.7 14.9 6.9 49 5.4 SSE 11 15 6 8 1014.7 1013.6 0.0
29/05:30am 17.5 14.6 6.7 49 5.4 S 11 13 6 7 1014.8 1013.7 0.0
29/05:00am 17.8 15.7 6.7 48 5.6 S 7 9 4 5 1014.5 1013.4 0.0
29/04:30am 18.2 15.7 6.7 47 5.8 SSW 9 13 5 7 1014.4 1013.3 0.0
29/04:00am 18.4 15.5 6.6 46 5.9 SSE 11 13 6 7 1014.3 1013.2 0.0
29/03:30am 18.7 15.8 6.5 45 6.1 SSE 11 15 6 8 1014.5 1013.4 0.0
29/03:00am 19.2 16.8 7.0 45 6.2 SSE 9 13 5 7 1014.7 1013.6 0.0
29/02:30am 19.7 16.5 6.8 43 6.6 SSE 13 17 7 9 1015.2 1014.0 0.0
29/02:00am 19.5 16.6 6.6 43 6.5 SSE 11 15 6 8 1015.5 1014.4 0.0
29/01:30am 20.1 16.8 6.5 41 6.9 SSE 13 15 7 8 1015.4 1014.3 0.0
29/01:00am 20.6 16.9 6.5 40 7.2 SSE 15 17 8 9 1015.3 1014.2 0.0
29/12:30am 21.0 17.3 6.2 38 7.5 SSE 15 17 8 9 1015.4 1014.3 0.0
29/12:00am 21.2 17.4 5.6 36 7.8 S 15 17 8 9 1015.4 1014.3 0.0
 
Date/Time
EDT
Temp
°C
App
Temp
°C
Dew
Point
°C
Rel
Hum
%
Delta-T
°C
Wind Press
QNH
hPa
Press
MSL
hPa
Rain since
9am
mm
Dir  Spd
km/h
Gust
km/h
Spd
kts
Gust
kts
28/11:30pm 21.4 17.9 5.3 35 8.0 SSE 13 15 7 8 1015.4 1014.3 0.0
28/11:00pm 21.5 18.6 4.6 33 8.3 SSE 9 11 5 6 1015.4 1014.3 0.0
28/10:30pm 22.4 19.2 4.9 32 8.7 SSE 11 11 6 6 1015.2 1014.0 0.0
28/10:00pm 22.8 19.8 4.3 30 9.2 S 9 11 5 6 1014.8 1013.7 0.0
28/09:30pm 24.2 21.0 5.1 29 9.7 SSE 11 13 6 7 1014.5 1013.4 0.0
28/09:00pm 24.9 21.7 5.2 28 10.1 SE 11 15 6 8 1014.1 1013.0 0.0
28/08:30pm 25.5 21.5 5.1 27 10.4 SE 15 20 8 11 1013.7 1012.6 0.0
28/08:00pm 26.0 21.3 5.0 26 10.8 SE 19 26 10 14 1013.3 1012.2 0.0
28/07:30pm 26.6 21.7 5.0 25 11.1 SSE 20 30 11 16 1013.0 1011.9 0.0
28/07:00pm 27.1 22.3 5.4 25 11.3 SSE 20 30 11 16 1012.8 1011.7 0.0
28/06:30pm 27.3 22.4 5.0 24 11.5 S 20 32 11 17 1012.8 1011.7 0.0
28/06:00pm 27.5 22.6 5.1 24 11.6 SSE 20 28 11 15 1012.6 1011.5 0.0
28/05:30pm 27.2 21.9 4.9 24 11.5 SSE 22 32 12 17 1012.8 1011.7 0.0
28/05:00pm 27.4 22.1 5.1 24 11.5 SSE 22 35 12 19 1012.7 1011.6 0.0
28/04:30pm 27.4 22.0 4.5 23 11.7 SE 22 39 12 21 1013.1 1012.0 0.0
28/04:00pm 27.6 22.0 3.3 21 12.2 SSE 22 33 12 18 1013.5 1012.4 0.0
28/03:30pm 26.7 21.4 3.2 22 11.7 SSE 20 33 11 18 1013.8 1012.7 0.0
28/03:00pm 25.8 20.2 3.7 24 11.0 SSE 22 35 12 19 1014.2 1013.1 0.0
28/02:30pm 25.2 19.9 4.9 27 10.3 S 22 37 12 20 1014.5 1013.4 0.0
28/02:00pm 24.5 18.8 4.8 28 9.9 SSE 24 37 13 20 1015.2 1014.0 0.0
28/01:30pm 23.9 18.2 4.8 29 9.6 SSE 24 35 13 19 1015.5 1014.4 0.0
28/01:00pm 23.0 17.4 5.4 32 8.9 SSE 24 35 13 19 1016.0 1014.9 0.0
28/12:30pm 22.3 16.4 5.7 34 8.4 SSE 26 39 14 21 1016.4 1015.3 0.0
28/12:00pm 22.7 17.3 6.5 35 8.3 SSE 24 33 13 18 1016.8 1015.7 0.0
28/11:30am 21.8 16.9 6.9 38 7.7 SSE 22 33 12 18 1017.2 1016.1 0.0
28/11:00am 20.3 15.1 7.3 43 6.7 SSE 24 35 13 19 1017.4 1016.3 0.0
28/10:30am 19.3 13.8 7.4 46 6.1 SSE 26 35 14 19 1017.5 1016.4 0.0
28/10:00am 18.3 12.4 7.4 49 5.5 SSE 28 37 15 20 1017.5 1016.4 0.0
28/09:30am 17.5 11.6 7.5 52 5.1 SSE 28 39 15 21 1017.4 1016.3 0.0
28/09:00am 16.6 10.3 7.5 55 4.6 SSE 30 39 16 21 1017.2 1016.1 0.0
28/08:30am 15.9 10.4 7.4 57 4.3 SSE 26 39 14 21 1016.8 1015.7 0.0
28/08:00am 15.3 10.9 7.3 59 4.0 SSE 20 32 11 17 1016.6 1015.5 0.0
28/07:30am 15.2 10.4 7.5 60 3.9 SSE 22 30 12 16 1016.2 1015.1 0.0
28/07:00am 15.4 11.0 7.2 58 4.1 SSE 20 30 11 16 1015.9 1014.8 0.0
28/06:30am 15.8 11.6 7.3 57 4.3 SSE 19 30 10 16 1015.7 1014.6 0.0
28/06:00am 16.2 11.3 6.9 54 4.6 SSE 22 32 12 17 1015.2 1014.0 0.0
28/05:30am 16.5 11.2 5.2 47 5.4 SSE 22 30 12 16 1014.7 1013.6 0.0
28/05:00am 17.1 11.4 4.8 44 5.9 SSE 24 33 13 18 1014.5 1013.4 0.0
28/04:30am 17.3 11.3 3.6 40 6.4 SSE 24 32 13 17 1014.2 1013.1 0.0
28/04:00am 17.9 12.2 2.6 36 7.1 SSE 22 28 12 15 1014.0 1012.9 0.0
28/03:30am 17.7 13.6 2.1 35 7.1 SSE 13 15 7 8 1014.0 1012.9 0.0
28/03:00am 18.6 14.5 2.4 34 7.5 SSE 13 19 7 10 1014.0 1012.9 0.0
28/02:30am 19.0 14.1 2.0 32 7.8 SSE 17 22 9 12 1014.1 1013.0 0.0
28/02:00am 19.2 13.9 1.7 31 8.0 SSE 19 24 10 13 1014.3 1013.2 0.0
28/01:30am 19.8 14.2 1.3 29 8.5 SSE 20 24 11 13 1014.2 1013.1 0.0
28/01:00am 19.9 14.6 -0.7 25 9.0 SSE 17 24 9 13 1014.0 1012.9 0.0
28/12:30am 20.0 15.0 -1.2 24 9.2 S 15 20 8 11 1013.9 1012.8 0.0
28/12:00am 20.6 16.0 -1.2 23 9.5 SSE 13 19 7 10 1013.7 1012.6 0.0
 
Date/Time
EDT
Temp
°C
App
Temp
°C
Dew
Point
°C
Rel
Hum
%
Delta-T
°C
Wind Press
QNH
hPa
Press
MSL
hPa
Rain since
9am
mm
Dir  Spd
km/h
Gust
km/h
Spd
kts
Gust
kts
27/11:30pm 21.4 16.0 -1.2 22 10.0 SSE 17 20 9 11 1013.4 1012.3 0.0
27/11:00pm 22.1 16.4 -0.6 22 10.2 SSE 19 22 10 12 1013.3 1012.2 0.0
27/10:30pm 22.6 16.6 -1.5 20 10.7 SSE 20 26 11 14 1013.3 1012.2 0.0
27/10:00pm 23.2 17.2 -1.7 19 11.0 SSE 20 26 11 14 1013.1 1012.0 0.0
27/09:30pm 23.9 17.9 -1.8 18 11.4 SSE 20 26 11 14 1012.8 1011.7 0.0
27/09:00pm 24.6 18.4 -2.9 16 12.1 SSE 20 28 11 15 1012.4 1011.3 0.0
27/08:30pm 25.3 18.5 -1.5 17 12.1 S 24 32 13 17 1011.9 1010.8 0.0
27/08:00pm 26.3 19.7 -3.3 14 13.1 S 22 30 12 16 1011.4 1010.3 0.0
27/07:30pm 27.1 20.2 -2.7 14 13.4 S 24 32 13 17 1011.2 1010.1 0.0
27/07:00pm 27.9 21.0 -3.0 13 13.9 S 24 32 13 17 1011.0 1009.9 0.0
27/06:30pm 28.2 22.0 -2.8 13 14.0 S 20 30 11 16 1010.7 1009.6 0.0
27/06:00pm 28.5 22.8 -0.6 15 13.7 SW 19 26 10 14 1010.6 1009.5 0.0
27/05:30pm 28.9 23.5 1.4 17 13.5 SW 19 30 10 16 1010.5 1009.4 0.0
27/05:00pm 28.5 22.9 1.1 17 13.3 SW 20 32 11 17 1010.7 1009.6 0.0
27/04:30pm 28.2 22.5 3.1 20 12.6 WSW 22 33 12 18 1010.9 1009.8 0.0
27/04:00pm 28.2 21.8 5.1 23 12.0 SW 28 39 15 21 1011.2 1010.1 0.0
27/03:30pm 28.3 22.5 4.6 22 12.2 WSW 24 39 13 21 1011.6 1010.5 0.0
27/03:00pm 27.9 23.2 6.1 25 11.5 SW 20 44 11 24 1012.2 1011.1 0.0
27/02:30pm 27.1 22.1 6.5 27 10.9 SW 22 33 12 18 1012.5 1011.4 0.0
27/02:00pm 26.2 21.4 7.3 30 10.1 SSW 22 35 12 19 1012.8 1011.7 0.0
27/01:30pm 26.0 21.6 7.6 31 9.9 SSW 20 30 11 16 1013.3 1012.2 0.0
27/01:00pm 26.0 21.7 7.1 30 10.0 SSW 19 28 10 15 1013.8 1012.7 0.0
27/12:30pm 24.4 20.3 6.2 31 9.4 S 17 28 9 15 1014.1 1013.0 0.0
27/12:00pm 23.8 19.4 6.6 33 8.9 SSE 19 32 10 17 1014.4 1013.3 0.0
27/11:30am 23.2 17.9 5.2 31 9.1 SSE 22 35 12 19 1014.5 1013.4 0.0
27/11:00am 22.5 17.2 5.0 32 8.8 SSE 22 33 12 18 1014.6 1013.5 0.0
27/10:30am 21.4 15.3 4.9 34 8.2 SSE 26 32 14 17 1014.7 1013.6 0.0
27/10:00am 21.2 16.1 4.3 33 8.3 SSE 20 30 11 16 1014.5 1013.4 0.0
27/09:30am 19.9 14.3 3.6 34 7.8 SSE 22 33 12 18 1014.4 1013.3 0.0
27/09:00am 18.5 11.6 2.8 35 7.3 SSE 28 35 15 19 1014.5 1013.4 0.0
27/08:30am 18.0 12.4 3.5 38 6.8 SSE 22 32 12 17 1014.3 1013.2 0.0
27/08:00am 17.6 12.7 3.9 40 6.5 SSE 19 26 10 14 1014.0 1012.9 0.0
27/07:30am 17.5 13.4 4.5 42 6.2 SSE 15 20 8 11 1013.8 1012.7 0.0
27/07:00am 17.9 14.0 5.2 43 6.2 SSE 15 22 8 12 1013.6 1012.5 0.0
27/06:30am 18.3 13.3 4.8 41 6.5 SSE 20 28 11 15 1013.1 1012.0 0.0
27/06:00am 18.7 13.6 6.2 44 6.2 SSE 22 30 12 16 1012.7 1011.6 0.0
27/05:30am 19.1 13.8 6.9 45 6.2 SSE 24 33 13 18 1012.5 1011.4 0.0
27/05:00am 19.6 15.3 7.7 46 6.2 SSE 20 28 11 15 1012.4 1011.3 0.0
27/04:30am 20.1 15.4 7.8 45 6.4 SSE 22 28 12 15 1012.3 1011.2 0.0
27/04:00am 20.5 15.5 8.2 45 6.5 SSE 24 32 13 17 1012.4 1011.3 0.0
27/03:30am 20.9 17.0 8.5 45 6.6 SSE 19 28 10 15 1012.3 1011.2 0.0
27/03:00am 21.5 17.0 8.7 44 6.8 SSE 22 30 12 16 1012.2 1011.1 0.0
27/02:30am 22.1 18.3 8.9 43 7.1 SSE 19 26 10 14 1012.3 1011.2 0.0
27/02:00am 22.6 17.9 9.4 43 7.2 SE 24 35 13 19 1012.3 1011.2 0.0
27/01:30am 23.0 18.8 9.8 43 7.2 SE 22 30 12 16 1012.3 1011.2 0.0
27/01:00am 23.6 18.2 9.6 41 7.7 SE 28 39 15 21 1012.2 1011.1 0.0
27/12:30am 24.5 20.3 7.6 34 9.0 SE 19 26 10 14 1012.3 1011.2 0.0
27/12:00am 25.1 20.8 6.8 31 9.6 SE 19 26 10 14 1012.2 1011.1 0.0
 
Date/Time
EDT
Temp
°C
App
Temp
°C
Dew
Point
°C
Rel
Hum
%
Delta-T
°C
Wind Press
QNH
hPa
Press
MSL
hPa
Rain since
9am
mm
Dir  Spd
km/h
Gust
km/h
Spd
kts
Gust
kts
26/11:30pm 25.5 21.5 6.7 30 9.9 SE 17 24 9 13 1011.9 1010.8 0.0
26/11:00pm 26.0 21.8 5.6 27 10.6 SSE 17 24 9 13 1011.6 1010.5 0.0
26/10:30pm 26.7 22.1 5.6 26 11.0 SSE 19 24 10 13 1011.5 1010.4 0.0
26/10:00pm 27.1 22.6 4.2 23 11.6 S 17 20 9 11 1011.3 1010.2 0.0
26/09:30pm 27.8 23.4 4.8 23 11.9 SSE 17 20 9 11 1011.0 1009.9 0.0
26/09:00pm 28.6 23.6 4.8 22 12.4 S 20 28 11 15 1010.4 1009.3 0.0
26/08:30pm 29.4 23.7 4.8 21 12.8 S 24 33 13 18 1010.1 1008.9 0.0
26/08:00pm 30.2 24.4 6.1 22 12.9 S 26 39 14 21 1009.8 1008.6 0.0
26/07:30pm 31.2 26.2 8.2 24 12.8 S 24 32 13 17 1009.5 1008.3 0.0
26/07:00pm 31.3 26.5 8.9 25 12.6 S 24 30 13 16 1009.3 1008.1 0.0
26/06:30pm 32.2 27.8 9.1 24 13.1 SSW 22 33 12 18 1009.1 1008.0 0.0
26/06:00pm 32.2 27.5 9.1 24 13.1 SSW 24 33 13 18 1009.0 1007.9 0.0
26/05:30pm 33.3 28.8 10.0 24 13.5 SW 24 35 13 19 1009.1 1008.0 0.0
26/05:00pm 32.2 27.8 9.1 24 13.1 SSW 22 33 12 18 1009.3 1008.1 0.0
26/04:30pm 32.2 28.2 9.1 24 13.1 SSW 20 35 11 19 1009.5 1008.3 0.0
26/04:00pm 32.8 28.6 8.3 22 13.8 S 20 35 11 19 1009.8 1008.6 0.0
26/03:30pm 32.0 27.8 7.6 22 13.5 SSE 19 32 10 17 1010.1 1008.9 0.0

Other formats

Comma delimited format used in spreadsheet applications
http://www.bom.gov.au/fwo/IDN60801/IDN60801.94686.axf

JavaScript Object Notation format (JSON) in row-major order
http://www.bom.gov.au/fwo/IDN60801/IDN60801.94686.json

Data quality

Most of these data are generated automatically and are frequently updated. Quality checks on data are not normally performed. It is possible for incorrect values to appear. Refer to information at About Latest Weather Observations and please check the disclaimer before using these data.